createdAt,value
2023-08-20T00:02:28.321Z,21.84
2023-08-20T00:04:58.282Z,21.81
2023-08-20T00:07:28.956Z,21.79
2023-08-20T00:09:59.244Z,21.76
2023-08-20T00:12:29.353Z,21.73
2023-08-20T00:15:05.906Z,21.71
2023-08-20T00:17:37.789Z,21.69
2023-08-20T00:20:16.475Z,21.67
2023-08-20T00:22:47.758Z,21.63
2023-08-20T00:25:18.736Z,21.60
2023-08-20T00:27:48.765Z,21.59
2023-08-20T00:30:18.834Z,21.56
2023-08-20T00:43:22.111Z,24.27
2023-08-20T00:45:53.052Z,23.61
2023-08-20T00:48:23.013Z,23.20
2023-08-20T00:50:52.879Z,22.85
2023-08-20T00:53:22.771Z,22.58
2023-08-20T00:55:52.655Z,22.39
2023-08-20T00:58:22.652Z,22.23
2023-08-20T01:00:52.811Z,22.08
2023-08-20T01:03:22.810Z,21.97
2023-08-20T01:05:54.927Z,21.88
2023-08-20T01:08:30.304Z,21.79
2023-08-20T01:11:03.147Z,21.72
2023-08-20T01:13:33.286Z,21.65
2023-08-20T01:16:03.378Z,21.57
2023-08-20T01:18:33.575Z,21.51
2023-08-20T01:21:04.085Z,21.44
2023-08-20T01:23:54.442Z,21.39
2023-08-20T01:26:53.088Z,21.35
2023-08-20T01:29:22.991Z,21.30
2023-08-20T01:31:52.998Z,21.67
2023-08-20T01:34:23.253Z,24.02
2023-08-20T01:36:54.813Z,24.42
2023-08-20T01:39:24.825Z,23.83
2023-08-20T01:41:54.824Z,23.28
2023-08-20T01:44:24.893Z,22.82
2023-08-20T01:46:55.124Z,22.51
2023-08-20T01:49:25.066Z,22.26
2023-08-20T01:51:55.070Z,22.05
2023-08-20T01:54:24.993Z,21.89
2023-08-20T01:56:55.012Z,21.75
2023-08-20T01:59:26.116Z,21.63
2023-08-20T02:01:56.151Z,21.53
2023-08-20T02:04:26.310Z,21.44
2023-08-20T02:06:56.504Z,21.36
2023-08-20T02:09:26.576Z,21.30
2023-08-20T02:11:56.710Z,21.24
2023-08-20T02:14:28.306Z,21.16
2023-08-20T02:16:58.433Z,21.57
2023-08-20T02:19:28.612Z,23.95
2023-08-20T02:21:58.734Z,24.33
2023-08-20T02:24:29.890Z,23.70
2023-08-20T02:27:00.015Z,23.14
2023-08-20T02:29:30.039Z,22.70
2023-08-20T02:32:00.120Z,22.36
2023-08-20T02:34:30.247Z,22.07
2023-08-20T02:37:00.323Z,21.84
2023-08-20T02:39:30.151Z,21.66
2023-08-20T02:42:00.508Z,21.47
2023-08-20T02:44:30.684Z,21.34
2023-08-20T02:47:00.633Z,21.21
2023-08-20T02:49:30.720Z,21.07
2023-08-20T02:52:00.864Z,20.95
2023-08-20T02:54:33.307Z,21.32
2023-08-20T02:57:03.815Z,23.65
2023-08-20T02:59:33.929Z,23.86
2023-08-20T03:02:04.773Z,23.13
2023-08-20T03:04:36.106Z,22.44
2023-08-20T03:07:06.391Z,21.93
2023-08-20T03:09:36.315Z,21.54
2023-08-20T03:12:07.598Z,21.20
2023-08-20T03:14:37.585Z,20.93
2023-08-20T03:17:07.604Z,20.71
2023-08-20T03:19:37.785Z,20.97
2023-08-20T03:22:07.677Z,23.09
2023-08-20T03:24:37.759Z,23.31
2023-08-20T03:27:07.835Z,22.71
2023-08-20T03:29:38.002Z,22.17
2023-08-20T03:32:08.309Z,21.78
2023-08-20T03:34:38.313Z,21.46
2023-08-20T03:37:08.350Z,21.24
2023-08-20T03:39:38.603Z,21.08
2023-08-20T03:42:08.823Z,20.95
2023-08-20T03:44:41.708Z,21.31
2023-08-20T03:47:11.849Z,23.51
2023-08-20T03:49:42.083Z,23.74
2023-08-20T03:52:12.335Z,23.12
2023-08-20T03:54:42.336Z,22.55
2023-08-20T03:57:12.542Z,22.10
2023-08-20T03:59:42.527Z,21.78
2023-08-20T04:02:12.386Z,21.54
2023-08-20T04:04:43.432Z,21.36
2023-08-20T04:07:13.390Z,21.21
2023-08-20T04:09:43.815Z,21.09
2023-08-20T04:12:15.524Z,21.51
2023-08-20T04:14:45.490Z,23.79
2023-08-20T04:17:15.533Z,24.04
2023-08-20T04:19:46.022Z,23.45
2023-08-20T04:22:16.058Z,22.94
2023-08-20T04:24:45.907Z,22.56
2023-08-20T04:27:15.906Z,22.27
2023-08-20T04:29:45.953Z,22.07
2023-08-20T04:32:15.973Z,21.92
2023-08-20T04:34:47.384Z,22.24
2023-08-20T04:37:17.805Z,24.39
2023-08-20T04:39:49.981Z,24.56
2023-08-20T04:42:20.134Z,23.96
2023-08-20T04:44:50.129Z,23.45
2023-08-20T04:47:21.158Z,23.07
2023-08-20T04:49:51.344Z,22.79
2023-08-20T04:52:21.695Z,22.58
2023-08-20T04:54:51.939Z,22.42
2023-08-20T04:57:22.483Z,22.73
2023-08-20T04:59:52.972Z,24.84
2023-08-20T05:02:36.197Z,25.05
2023-08-20T05:05:11.099Z,24.49
2023-08-20T05:07:44.773Z,24.01
2023-08-20T05:10:14.821Z,23.66
2023-08-20T05:12:45.060Z,23.43
2023-08-20T05:15:15.743Z,23.25
2023-08-20T05:17:45.989Z,23.62
2023-08-20T05:20:16.712Z,25.68
2023-08-20T05:22:47.704Z,25.82
2023-08-20T05:25:18.040Z,25.30
2023-08-20T05:27:48.411Z,24.86
2023-08-20T05:30:19.015Z,24.54
2023-08-20T05:32:49.035Z,24.31
2023-08-20T05:35:19.282Z,24.15
2023-08-20T05:37:49.625Z,24.52
2023-08-20T05:40:19.924Z,26.56
2023-08-20T05:42:52.342Z,26.71
2023-08-20T05:45:22.642Z,26.18
2023-08-20T05:47:52.889Z,25.73
2023-08-20T05:50:22.979Z,25.41
2023-08-20T05:52:53.634Z,25.17
2023-08-20T05:55:25.073Z,25.01
2023-08-20T05:57:55.856Z,24.88
2023-08-20T06:00:25.934Z,24.80
2023-08-20T06:02:56.191Z,24.74
2023-08-20T06:05:26.180Z,24.70
2023-08-20T06:07:56.754Z,24.69
2023-08-20T06:10:27.579Z,25.19
2023-08-20T06:12:58.257Z,27.48
2023-08-20T06:15:28.323Z,27.76
2023-08-20T06:17:58.365Z,27.27
2023-08-20T06:20:28.468Z,26.82
2023-08-20T06:22:58.460Z,26.50
2023-08-20T06:25:28.455Z,26.27
2023-08-20T06:27:58.519Z,26.12
2023-08-20T06:30:29.003Z,26.03
2023-08-20T06:32:58.976Z,25.95
2023-08-20T06:35:29.015Z,25.89
2023-08-20T06:37:59.475Z,25.86
2023-08-20T06:40:29.771Z,25.85
2023-08-20T06:42:59.988Z,25.86
2023-08-20T06:45:30.533Z,25.87
2023-08-20T06:48:00.494Z,25.90
2023-08-20T06:50:30.726Z,25.93
2023-08-20T06:53:00.625Z,25.97
2023-08-20T06:55:30.661Z,26.02
2023-08-20T06:58:01.018Z,26.09
2023-08-20T07:00:31.118Z,26.17
2023-08-20T07:03:01.146Z,26.24
2023-08-20T07:05:31.339Z,26.30
2023-08-20T07:08:01.435Z,26.38
2023-08-20T07:10:31.528Z,26.47
2023-08-20T07:13:01.475Z,26.55
2023-08-20T07:15:31.986Z,26.65
2023-08-20T07:18:02.130Z,26.74
2023-08-20T07:20:32.181Z,26.84
2023-08-20T07:23:03.229Z,26.93
2023-08-20T07:25:35.093Z,27.03
2023-08-20T07:28:06.436Z,27.14
2023-08-20T07:30:36.715Z,27.22
2023-08-20T07:33:07.351Z,27.30
2023-08-20T07:35:37.292Z,27.39
2023-08-20T07:38:07.285Z,27.46
2023-08-20T07:40:37.296Z,27.54
2023-08-20T07:43:07.839Z,27.60
2023-08-20T07:45:38.387Z,27.67
2023-08-20T07:48:09.176Z,27.75
2023-08-20T07:50:39.516Z,27.81
2023-08-20T07:53:11.948Z,27.89
2023-08-20T07:55:41.920Z,27.99
2023-08-20T07:58:12.064Z,28.10
2023-08-20T08:00:42.029Z,28.22
2023-08-20T08:03:12.077Z,28.33
2023-08-20T08:05:42.197Z,28.43
2023-08-20T08:08:12.218Z,28.53
2023-08-20T08:10:42.265Z,28.61
2023-08-20T08:13:12.477Z,28.69
2023-08-20T08:15:42.514Z,28.77
2023-08-20T08:18:12.501Z,28.83
2023-08-20T08:20:42.571Z,28.91
2023-08-20T08:23:12.622Z,28.98
2023-08-20T08:25:42.702Z,29.05
2023-08-20T08:28:12.645Z,29.12
2023-08-20T08:30:43.140Z,29.17
2023-08-20T08:33:13.402Z,29.21
2023-08-20T08:35:43.447Z,29.25
2023-08-20T08:38:13.562Z,29.28
2023-08-20T08:40:43.522Z,29.31
2023-08-20T08:43:17.588Z,29.32
2023-08-20T08:45:50.001Z,29.32
2023-08-20T08:48:20.774Z,29.35
2023-08-20T08:50:50.723Z,29.39
2023-08-20T08:53:20.679Z,29.45
2023-08-20T08:55:51.305Z,29.51
2023-08-20T08:58:21.595Z,29.58
2023-08-20T09:00:51.928Z,29.67
2023-08-20T09:03:22.003Z,29.76
2023-08-20T09:05:56.391Z,29.86
2023-08-20T09:08:29.127Z,29.96
2023-08-20T09:10:59.721Z,30.04
2023-08-20T09:13:36.261Z,30.13
2023-08-20T09:16:09.715Z,30.22
2023-08-20T09:18:41.833Z,30.30
2023-08-20T09:21:12.006Z,30.41
2023-08-20T09:23:41.947Z,30.49
2023-08-20T09:26:11.950Z,30.55
2023-08-20T09:28:45.330Z,30.59
2023-08-20T09:31:15.395Z,30.61
2023-08-20T09:33:54.793Z,30.63
2023-08-20T09:36:33.413Z,30.65
2023-08-20T09:39:03.433Z,30.69
2023-08-20T09:41:33.581Z,30.71
2023-08-20T09:44:03.597Z,30.72
2023-08-20T09:46:34.128Z,30.73
2023-08-20T09:49:04.475Z,30.74
2023-08-20T09:51:35.241Z,30.77
2023-08-20T09:54:12.521Z,30.81
2023-08-20T09:56:42.432Z,30.86
2023-08-20T09:59:12.338Z,30.91
2023-08-20T10:01:42.344Z,30.97
2023-08-20T10:04:13.653Z,31.04
2023-08-20T10:06:43.643Z,31.10
2023-08-20T10:09:14.267Z,31.16
2023-08-20T10:11:44.248Z,31.22
2023-08-20T10:14:15.354Z,31.28
2023-08-20T10:16:45.287Z,31.34
2023-08-20T10:19:16.673Z,31.41
2023-08-20T10:21:47.863Z,31.46
2023-08-20T10:24:20.483Z,31.51
2023-08-20T10:26:50.808Z,31.56
2023-08-20T10:29:40.358Z,31.57
2023-08-20T10:32:11.103Z,31.58
2023-08-20T10:34:43.501Z,31.60
2023-08-20T10:37:14.665Z,31.63
2023-08-20T10:39:44.781Z,31.72
2023-08-20T10:42:31.139Z,31.84
2023-08-20T10:45:02.276Z,31.97
2023-08-20T10:47:39.611Z,32.09
2023-08-20T10:50:12.155Z,32.18
2023-08-20T10:52:43.285Z,32.27
2023-08-20T10:55:13.560Z,32.34
2023-08-20T10:57:43.807Z,32.38
2023-08-20T11:00:18.013Z,32.44
2023-08-20T11:02:48.175Z,32.53
2023-08-20T11:05:22.599Z,32.63
2023-08-20T11:07:52.907Z,32.72
2023-08-20T11:10:22.949Z,32.81
2023-08-20T11:12:53.047Z,32.88
2023-08-20T11:15:23.243Z,32.93
2023-08-20T11:17:53.362Z,32.97
2023-08-20T11:20:23.598Z,33.02
2023-08-20T11:22:53.891Z,33.05
2023-08-20T11:25:24.102Z,33.09
2023-08-20T11:27:53.974Z,33.12
2023-08-20T11:30:25.714Z,33.14
2023-08-20T11:32:55.764Z,33.14
2023-08-20T11:35:25.870Z,33.15
2023-08-20T11:37:56.053Z,33.17
2023-08-20T11:40:26.032Z,33.17
2023-08-20T11:42:56.137Z,33.18
2023-08-20T11:45:26.198Z,33.18
2023-08-20T11:47:59.552Z,33.19
2023-08-20T11:50:29.636Z,33.20
2023-08-20T11:53:02.465Z,33.22
2023-08-20T11:55:32.556Z,33.24
2023-08-20T11:58:02.884Z,33.25
2023-08-20T12:00:33.323Z,33.29
2023-08-20T12:03:05.193Z,33.32
2023-08-20T12:05:35.198Z,33.36
2023-08-20T12:08:05.547Z,33.40
2023-08-20T12:10:36.072Z,33.44
2023-08-20T12:13:06.361Z,33.47
2023-08-20T12:15:36.368Z,33.52
2023-08-20T12:18:07.836Z,33.60
2023-08-20T12:20:38.362Z,33.69
2023-08-20T12:23:08.875Z,33.78
2023-08-20T12:25:39.140Z,33.88
2023-08-20T12:28:09.551Z,33.95
2023-08-20T12:30:40.235Z,34.02
2023-08-20T12:33:10.407Z,34.09
2023-08-20T12:35:40.433Z,34.14
2023-08-20T12:38:11.000Z,34.18
2023-08-20T12:40:41.093Z,34.24
2023-08-20T12:43:10.984Z,34.28
2023-08-20T12:45:41.428Z,34.32
2023-08-20T12:48:11.417Z,34.37
2023-08-20T12:50:42.372Z,34.41
2023-08-20T12:53:14.124Z,34.44
2023-08-20T12:55:44.116Z,34.47
2023-08-20T12:58:14.466Z,34.50
2023-08-20T13:00:44.722Z,34.53
2023-08-20T13:03:15.808Z,34.57
2023-08-20T13:05:46.698Z,34.60
2023-08-20T13:08:17.558Z,34.66
2023-08-20T13:10:49.575Z,34.70
2023-08-20T13:13:19.488Z,34.73
2023-08-20T13:15:50.522Z,34.77
2023-08-20T13:18:25.873Z,34.78
2023-08-20T13:20:56.315Z,34.78
2023-08-20T13:23:26.308Z,34.78
2023-08-20T13:25:56.651Z,34.79
2023-08-20T13:28:26.804Z,34.83
2023-08-20T13:30:56.847Z,34.90
2023-08-20T13:33:27.161Z,34.96
2023-08-20T13:35:58.499Z,35.01
2023-08-20T13:38:28.943Z,35.04
2023-08-20T13:40:59.182Z,35.06
2023-08-20T13:43:29.251Z,35.08
2023-08-20T13:45:59.515Z,35.10
2023-08-20T13:48:29.501Z,35.11
2023-08-20T13:50:59.680Z,35.12
2023-08-20T13:53:29.778Z,35.14
2023-08-20T13:55:59.986Z,35.17
2023-08-20T13:58:30.174Z,35.20
2023-08-20T14:01:00.554Z,35.24
2023-08-20T14:03:30.614Z,35.26
2023-08-20T14:06:01.131Z,35.29
2023-08-20T14:08:31.551Z,35.31
2023-08-20T14:11:01.668Z,35.32
2023-08-20T14:13:31.530Z,35.32
2023-08-20T14:16:02.283Z,35.33
2023-08-20T14:18:32.721Z,35.34
2023-08-20T14:21:02.723Z,35.36
2023-08-20T14:23:33.010Z,35.35
2023-08-20T14:26:05.063Z,35.34
2023-08-20T14:28:34.990Z,35.32
2023-08-20T14:31:05.926Z,35.34
2023-08-20T14:33:36.086Z,35.36
2023-08-20T14:36:06.713Z,35.39
2023-08-20T14:38:37.004Z,35.42
2023-08-20T14:41:07.442Z,35.42
2023-08-20T14:43:40.687Z,35.40
2023-08-20T14:46:10.664Z,35.37
2023-08-20T14:48:42.424Z,35.36
2023-08-20T14:51:12.428Z,35.32
2023-08-20T14:53:42.459Z,35.27
2023-08-20T14:56:12.491Z,35.23
2023-08-20T14:58:42.541Z,35.24
2023-08-20T15:01:12.512Z,35.38
2023-08-20T15:03:42.919Z,35.60
2023-08-20T15:06:13.048Z,35.83
2023-08-20T15:08:43.141Z,36.09
2023-08-20T15:11:12.981Z,36.31
2023-08-20T15:13:42.870Z,36.48
2023-08-20T15:16:13.106Z,36.57
2023-08-20T15:18:42.990Z,36.54
2023-08-20T15:21:12.980Z,36.46
2023-08-20T15:23:43.241Z,36.34
2023-08-20T15:26:13.370Z,36.22
2023-08-20T15:28:43.396Z,35.99
2023-08-20T15:31:13.420Z,35.67
2023-08-20T15:33:43.793Z,35.35
2023-08-20T15:36:13.809Z,35.05
2023-08-20T15:38:43.915Z,34.75
2023-08-20T15:41:14.014Z,34.50
2023-08-20T15:43:47.081Z,34.26
2023-08-20T15:46:17.198Z,34.05
2023-08-20T15:48:47.747Z,33.85
2023-08-20T15:51:17.861Z,33.64
2023-08-20T15:53:47.961Z,33.48
2023-08-20T15:56:17.935Z,33.32
2023-08-20T15:58:48.838Z,33.19
2023-08-20T16:01:18.730Z,33.06
2023-08-20T16:03:48.759Z,32.93
2023-08-20T16:06:18.734Z,32.89
2023-08-20T16:08:48.716Z,32.86
2023-08-20T16:11:18.797Z,32.83
2023-08-20T16:13:49.446Z,32.78
2023-08-20T16:16:19.944Z,32.69
2023-08-20T16:18:50.308Z,32.60
2023-08-20T16:21:20.361Z,32.50
2023-08-20T16:23:50.587Z,32.42
2023-08-20T16:26:20.590Z,32.34
2023-08-20T16:28:51.864Z,32.24
2023-08-20T16:34:23.049Z,32.04
2023-08-20T16:36:53.216Z,31.91
2023-08-20T16:39:23.235Z,31.83
2023-08-20T16:41:53.289Z,31.76
2023-08-20T16:44:23.554Z,31.67
2023-08-20T16:46:54.496Z,31.59
2023-08-20T16:49:25.398Z,31.50
2023-08-20T16:51:55.444Z,31.41
2023-08-20T16:54:25.577Z,31.33
2023-08-20T16:56:56.040Z,31.25
2023-08-20T16:59:25.983Z,31.16
2023-08-20T17:01:56.060Z,31.05
2023-08-20T17:04:30.105Z,30.95
2023-08-20T17:07:00.323Z,30.86
2023-08-20T17:09:30.415Z,30.76
2023-08-20T17:12:01.440Z,30.62
2023-08-20T17:14:32.080Z,30.50
2023-08-20T17:17:03.390Z,30.37
2023-08-20T17:19:33.403Z,30.25
2023-08-20T17:22:03.693Z,30.16
2023-08-20T17:24:33.822Z,30.10
2023-08-20T17:27:04.094Z,29.99
2023-08-20T17:29:34.166Z,29.87
2023-08-20T17:32:04.196Z,29.79
2023-08-20T17:34:35.332Z,29.69
2023-08-20T17:37:05.382Z,29.58
2023-08-20T17:39:35.459Z,29.46
2023-08-20T17:42:05.668Z,29.34
2023-08-20T17:44:36.500Z,29.24
2023-08-20T17:47:06.777Z,29.17
2023-08-20T17:49:36.974Z,29.08
2023-08-20T17:52:07.220Z,28.98
2023-08-20T17:54:37.379Z,28.88
2023-08-20T17:57:07.622Z,28.81
2023-08-20T17:59:37.671Z,28.73
2023-08-20T18:02:11.198Z,28.67
2023-08-20T18:04:41.350Z,28.62
2023-08-20T18:07:11.848Z,28.57
2023-08-20T18:09:42.087Z,28.52
2023-08-20T18:12:12.281Z,28.46
2023-08-20T18:14:42.365Z,28.40
2023-08-20T18:17:12.208Z,28.33
2023-08-20T18:19:43.354Z,28.25
2023-08-20T18:22:13.369Z,28.22
2023-08-20T18:24:43.541Z,28.17
2023-08-20T18:27:13.978Z,28.11
2023-08-20T18:29:45.124Z,28.05
2023-08-20T18:32:15.454Z,28.01
2023-08-20T18:34:45.522Z,27.97
2023-08-20T18:37:15.515Z,27.94
2023-08-20T18:39:45.602Z,27.90
2023-08-20T18:42:15.594Z,27.85
2023-08-20T18:44:45.748Z,27.81
2023-08-20T18:47:15.753Z,27.74
2023-08-20T18:49:48.351Z,27.67
2023-08-20T18:52:21.351Z,27.61
2023-08-20T18:54:51.524Z,27.55
2023-08-20T18:57:21.773Z,27.50
2023-08-20T18:59:51.938Z,27.44
2023-08-20T19:02:22.000Z,27.38
2023-08-20T19:04:53.149Z,27.32
2023-08-20T19:07:23.754Z,27.27
2023-08-20T19:09:53.848Z,27.22
2023-08-20T19:12:26.709Z,27.18
2023-08-20T19:14:57.138Z,27.14
2023-08-20T19:17:27.681Z,27.09
2023-08-20T19:19:57.691Z,27.04
2023-08-20T19:22:27.709Z,26.98
2023-08-20T19:24:58.348Z,26.94
2023-08-20T19:27:28.438Z,26.90
2023-08-20T19:29:59.040Z,26.86
2023-08-20T19:32:30.386Z,26.82
2023-08-20T19:35:00.614Z,26.78
2023-08-20T19:37:30.728Z,26.73
2023-08-20T19:40:02.151Z,26.69
2023-08-20T19:42:35.671Z,26.66
2023-08-20T19:45:07.334Z,26.65
2023-08-20T19:47:37.771Z,26.64
2023-08-20T19:50:08.736Z,26.63
2023-08-20T19:52:39.340Z,26.63
2023-08-20T19:55:10.074Z,26.63
2023-08-20T19:57:41.200Z,26.61
2023-08-20T20:00:12.666Z,26.61
2023-08-20T20:02:42.911Z,26.60
2023-08-20T20:05:15.902Z,26.58
2023-08-20T20:07:45.926Z,26.56
2023-08-20T20:10:16.159Z,26.53
2023-08-20T20:12:50.507Z,26.51
2023-08-20T20:15:20.855Z,26.48
2023-08-20T20:17:50.949Z,26.43
2023-08-20T20:20:23.087Z,26.38
2023-08-20T20:22:53.444Z,26.32
2023-08-20T20:25:25.003Z,26.27
2023-08-20T20:27:55.661Z,26.22
2023-08-20T20:30:25.901Z,26.14
2023-08-20T20:32:56.140Z,26.07
2023-08-20T20:35:26.152Z,26.00
2023-08-20T20:37:56.020Z,25.95
2023-08-20T20:40:26.471Z,25.88
2023-08-20T20:42:56.664Z,25.81
2023-08-20T20:45:26.647Z,25.76
2023-08-20T20:47:56.967Z,25.71
2023-08-20T20:50:26.928Z,25.68
2023-08-20T20:52:57.214Z,25.64
2023-08-20T20:55:27.382Z,25.61
2023-08-20T20:57:57.429Z,25.59
2023-08-20T21:00:27.524Z,25.56
2023-08-20T21:02:57.644Z,25.54
2023-08-20T21:05:27.556Z,25.51
2023-08-20T21:07:57.767Z,25.49
2023-08-20T21:10:27.914Z,25.46
2023-08-20T21:12:58.055Z,25.42
2023-08-20T21:15:28.145Z,25.39
2023-08-20T21:17:58.244Z,25.35
2023-08-20T21:20:28.427Z,25.27
2023-08-20T21:22:58.436Z,25.20
2023-08-20T21:25:28.840Z,25.13
2023-08-20T21:27:58.944Z,25.06
2023-08-20T21:30:28.974Z,24.97
2023-08-20T21:32:59.052Z,24.92
2023-08-20T21:35:29.277Z,24.85
2023-08-20T21:37:59.359Z,24.76
2023-08-20T21:40:29.673Z,24.70
2023-08-20T21:42:59.620Z,24.63
2023-08-20T21:45:29.800Z,24.57
2023-08-20T21:47:59.736Z,24.55
2023-08-20T21:50:29.746Z,24.52
2023-08-20T21:52:59.677Z,24.48
2023-08-20T21:55:31.751Z,24.44
2023-08-20T21:58:01.814Z,24.41
2023-08-20T22:00:32.283Z,24.39
2023-08-20T22:03:02.330Z,24.36
2023-08-20T22:05:32.913Z,24.35
2023-08-20T22:08:03.627Z,24.33
2023-08-20T22:10:34.138Z,24.31
2023-08-20T22:13:04.267Z,24.30
2023-08-20T22:15:34.490Z,24.28
2023-08-20T22:18:05.485Z,24.25
2023-08-20T22:20:35.426Z,24.23
2023-08-20T22:23:05.566Z,24.19
2023-08-20T22:25:35.533Z,24.16
2023-08-20T22:28:06.336Z,24.12
2023-08-20T22:30:37.952Z,24.10
2023-08-20T22:33:08.138Z,24.09
2023-08-20T22:35:38.102Z,24.08
2023-08-20T22:38:10.174Z,24.07
2023-08-20T22:40:43.330Z,24.05
2023-08-20T22:43:13.320Z,24.02
2023-08-20T22:45:43.288Z,23.96
2023-08-20T22:48:13.505Z,23.90
2023-08-20T22:58:11.987Z,23.40
2023-08-20T23:00:42.085Z,23.42
2023-08-20T23:03:12.158Z,23.38
2023-08-20T23:05:42.205Z,23.36
2023-08-20T23:08:12.305Z,23.32
2023-08-20T23:10:42.315Z,23.28
2023-08-20T23:13:12.208Z,23.24
2023-08-20T23:15:44.523Z,23.20
2023-08-20T23:18:15.257Z,23.17
2023-08-20T23:20:46.212Z,23.15
2023-08-20T23:23:16.098Z,23.15
2023-08-20T23:25:47.112Z,23.16
2023-08-20T23:28:17.295Z,23.17
2023-08-20T23:30:47.283Z,23.17
2023-08-20T23:33:17.939Z,23.17
2023-08-20T23:35:48.182Z,23.16
2023-08-20T23:38:18.274Z,23.15
2023-08-20T23:40:48.375Z,23.13
2023-08-20T23:43:18.248Z,23.12
2023-08-20T23:45:48.067Z,23.10
2023-08-20T23:48:18.189Z,23.08
2023-08-20T23:50:48.245Z,23.07
2023-08-20T23:53:18.672Z,23.05
2023-08-20T23:55:48.782Z,23.02
2023-08-20T23:58:18.763Z,23.00
